sensor_id;sensor_type;location;lat;lon;timestamp;P1;durP1;ratioP1;P2;durP2;ratioP2
20859;SDS011;10590;48.154;11.514;2023-05-14T00:01:33;14.83;;;9.83;;
20859;SDS011;10590;48.154;11.514;2023-05-14T00:06:55;17.20;;;9.63;;
20859;SDS011;10590;48.154;11.514;2023-05-14T00:12:18;13.03;;;8.50;;
20859;SDS011;10590;48.154;11.514;2023-05-14T00:17:41;15.93;;;9.20;;
20859;SDS011;10590;48.154;11.514;2023-05-14T00:23:03;12.73;;;8.93;;
20859;SDS011;10590;48.154;11.514;2023-05-14T00:28:25;12.67;;;8.97;;
20859;SDS011;10590;48.154;11.514;2023-05-14T00:33:48;14.40;;;9.17;;
20859;SDS011;10590;48.154;11.514;2023-05-14T00:39:10;12.10;;;8.30;;
20859;SDS011;10590;48.154;11.514;2023-05-14T00:44:32;14.70;;;9.03;;
20859;SDS011;10590;48.154;11.514;2023-05-14T00:49:55;13.87;;;9.53;;
20859;SDS011;10590;48.154;11.514;2023-05-14T00:55:18;14.83;;;9.30;;
20859;SDS011;10590;48.154;11.514;2023-05-14T01:00:42;20.80;;;9.47;;
20859;SDS011;10590;48.154;11.514;2023-05-14T01:06:08;16.13;;;9.60;;
20859;SDS011;10590;48.154;11.514;2023-05-14T01:11:35;12.83;;;8.70;;
20859;SDS011;10590;48.154;11.514;2023-05-14T01:17:03;16.90;;;9.67;;
20859;SDS011;10590;48.154;11.514;2023-05-14T01:22:26;18.50;;;10.27;;
20859;SDS011;10590;48.154;11.514;2023-05-14T01:27:50;16.50;;;10.20;;
20859;SDS011;10590;48.154;11.514;2023-05-14T01:33:18;15.13;;;9.97;;
20859;SDS011;10590;48.154;11.514;2023-05-14T01:38:43;17.10;;;9.60;;
20859;SDS011;10590;48.154;11.514;2023-05-14T01:44:06;14.27;;;8.50;;
20859;SDS011;10590;48.154;11.514;2023-05-14T01:49:29;16.60;;;9.67;;
20859;SDS011;10590;48.154;11.514;2023-05-14T01:54:53;16.83;;;10.10;;
20859;SDS011;10590;48.154;11.514;2023-05-14T02:00:15;17.47;;;9.43;;
20859;SDS011;10590;48.154;11.514;2023-05-14T02:05:37;18.97;;;11.07;;
20859;SDS011;10590;48.154;11.514;2023-05-14T02:11:01;18.33;;;11.30;;
20859;SDS011;10590;48.154;11.514;2023-05-14T02:16:22;19.50;;;11.40;;
20859;SDS011;10590;48.154;11.514;2023-05-14T02:21:44;21.27;;;11.73;;
20859;SDS011;10590;48.154;11.514;2023-05-14T02:27:08;19.13;;;11.27;;
20859;SDS011;10590;48.154;11.514;2023-05-14T02:32:32;19.10;;;11.30;;
20859;SDS011;10590;48.154;11.514;2023-05-14T02:37:54;17.70;;;10.70;;
20859;SDS011;10590;48.154;11.514;2023-05-14T02:43:17;18.53;;;10.37;;
20859;SDS011;10590;48.154;11.514;2023-05-14T02:48:39;16.63;;;9.97;;
20859;SDS011;10590;48.154;11.514;2023-05-14T02:54:01;17.90;;;11.87;;
20859;SDS011;10590;48.154;11.514;2023-05-14T02:59:25;19.20;;;11.07;;
20859;SDS011;10590;48.154;11.514;2023-05-14T03:04:48;21.33;;;10.87;;
20859;SDS011;10590;48.154;11.514;2023-05-14T03:10:10;18.63;;;9.83;;
20859;SDS011;10590;48.154;11.514;2023-05-14T03:15:33;20.77;;;11.17;;
20859;SDS011;10590;48.154;11.514;2023-05-14T03:20:55;18.43;;;10.87;;
20859;SDS011;10590;48.154;11.514;2023-05-14T03:26:17;19.83;;;11.50;;
20859;SDS011;10590;48.154;11.514;2023-05-14T03:31:40;18.03;;;11.13;;
20859;SDS011;10590;48.154;11.514;2023-05-14T03:37:04;16.13;;;10.57;;
20859;SDS011;10590;48.154;11.514;2023-05-14T03:42:26;18.77;;;10.33;;
20859;SDS011;10590;48.154;11.514;2023-05-14T03:47:49;34.93;;;12.07;;
20859;SDS011;10590;48.154;11.514;2023-05-14T03:53:11;19.70;;;11.90;;
20859;SDS011;10590;48.154;11.514;2023-05-14T03:58:33;18.77;;;11.13;;
20859;SDS011;10590;48.154;11.514;2023-05-14T04:03:59;18.57;;;12.27;;
20859;SDS011;10590;48.154;11.514;2023-05-14T04:09:21;22.83;;;13.57;;
20859;SDS011;10590;48.154;11.514;2023-05-14T04:14:43;52.00;;;21.83;;
20859;SDS011;10590;48.154;11.514;2023-05-14T04:20:08;27.37;;;13.63;;
20859;SDS011;10590;48.154;11.514;2023-05-14T04:25:30;23.63;;;12.60;;
20859;SDS011;10590;48.154;11.514;2023-05-14T04:30:52;19.20;;;11.47;;
20859;SDS011;10590;48.154;11.514;2023-05-14T04:36:16;19.07;;;10.50;;
20859;SDS011;10590;48.154;11.514;2023-05-14T04:41:38;21.67;;;11.00;;
20859;SDS011;10590;48.154;11.514;2023-05-14T04:47:00;19.50;;;12.07;;
20859;SDS011;10590;48.154;11.514;2023-05-14T04:52:23;19.17;;;11.10;;
20859;SDS011;10590;48.154;11.514;2023-05-14T04:57:45;19.77;;;12.00;;
20859;SDS011;10590;48.154;11.514;2023-05-14T05:03:08;29.93;;;11.67;;
20859;SDS011;10590;48.154;11.514;2023-05-14T05:08:31;22.57;;;11.77;;
20859;SDS011;10590;48.154;11.514;2023-05-14T05:13:53;21.63;;;11.83;;
20859;SDS011;10590;48.154;11.514;2023-05-14T05:19:15;30.23;;;12.80;;
20859;SDS011;10590;48.154;11.514;2023-05-14T05:24:38;23.47;;;13.17;;
20859;SDS011;10590;48.154;11.514;2023-05-14T05:30:00;26.97;;;13.93;;
20859;SDS011;10590;48.154;11.514;2023-05-14T05:35:23;23.70;;;13.23;;
20859;SDS011;10590;48.154;11.514;2023-05-14T05:40:46;31.37;;;14.70;;
20859;SDS011;10590;48.154;11.514;2023-05-14T05:46:08;32.03;;;14.63;;
20859;SDS011;10590;48.154;11.514;2023-05-14T05:51:30;28.90;;;14.90;;
20859;SDS011;10590;48.154;11.514;2023-05-14T05:56:53;29.03;;;14.33;;
20859;SDS011;10590;48.154;11.514;2023-05-14T06:02:15;23.03;;;14.27;;
20859;SDS011;10590;48.154;11.514;2023-05-14T06:07:37;31.43;;;14.10;;
20859;SDS011;10590;48.154;11.514;2023-05-14T06:13:01;27.17;;;13.13;;
20859;SDS011;10590;48.154;11.514;2023-05-14T06:18:23;25.40;;;13.43;;
20859;SDS011;10590;48.154;11.514;2023-05-14T06:23:45;18.80;;;11.97;;
20859;SDS011;10590;48.154;11.514;2023-05-14T06:29:08;27.63;;;13.13;;
20859;SDS011;10590;48.154;11.514;2023-05-14T06:34:30;23.37;;;13.20;;
20859;SDS011;10590;48.154;11.514;2023-05-14T06:39:52;26.00;;;11.93;;
20859;SDS011;10590;48.154;11.514;2023-05-14T06:45:16;20.47;;;11.93;;
20859;SDS011;10590;48.154;11.514;2023-05-14T06:50:38;25.13;;;12.83;;
20859;SDS011;10590;48.154;11.514;2023-05-14T06:56:00;29.37;;;12.27;;
20859;SDS011;10590;48.154;11.514;2023-05-14T07:01:23;21.03;;;11.67;;
20859;SDS011;10590;48.154;11.514;2023-05-14T07:06:45;21.67;;;12.80;;
20859;SDS011;10590;48.154;11.514;2023-05-14T07:12:07;20.27;;;11.40;;
20859;SDS011;10590;48.154;11.514;2023-05-14T07:17:31;19.27;;;11.70;;
20859;SDS011;10590;48.154;11.514;2023-05-14T07:22:53;20.37;;;11.60;;
20859;SDS011;10590;48.154;11.514;2023-05-14T07:28:14;25.13;;;12.53;;
20859;SDS011;10590;48.154;11.514;2023-05-14T07:33:38;42.77;;;22.00;;
20859;SDS011;10590;48.154;11.514;2023-05-14T07:39:00;18.70;;;10.57;;
20859;SDS011;10590;48.154;11.514;2023-05-14T07:44:21;22.07;;;10.63;;
20859;SDS011;10590;48.154;11.514;2023-05-14T07:49:45;20.77;;;11.40;;
20859;SDS011;10590;48.154;11.514;2023-05-14T07:55:07;22.57;;;11.50;;
20859;SDS011;10590;48.154;11.514;2023-05-14T08:00:30;24.70;;;12.10;;
20859;SDS011;10590;48.154;11.514;2023-05-14T08:05:53;21.03;;;10.83;;
20859;SDS011;10590;48.154;11.514;2023-05-14T08:11:15;25.03;;;11.37;;
20859;SDS011;10590;48.154;11.514;2023-05-14T08:16:37;22.83;;;11.33;;
20859;SDS011;10590;48.154;11.514;2023-05-14T08:22:01;21.73;;;11.23;;
20859;SDS011;10590;48.154;11.514;2023-05-14T08:27:23;15.93;;;9.93;;
20859;SDS011;10590;48.154;11.514;2023-05-14T08:32:45;22.60;;;10.30;;
20859;SDS011;10590;48.154;11.514;2023-05-14T08:38:08;16.63;;;9.47;;
20859;SDS011;10590;48.154;11.514;2023-05-14T08:43:33;17.60;;;9.40;;
20859;SDS011;10590;48.154;11.514;2023-05-14T08:49:07;17.93;;;9.73;;
20859;SDS011;10590;48.154;11.514;2023-05-14T08:54:38;17.00;;;9.87;;
20859;SDS011;10590;48.154;11.514;2023-05-14T09:00:01;18.07;;;8.63;;
20859;SDS011;10590;48.154;11.514;2023-05-14T09:05:27;21.53;;;8.13;;
20859;SDS011;10590;48.154;11.514;2023-05-14T09:10:51;15.07;;;7.97;;
20859;SDS011;10590;48.154;11.514;2023-05-14T09:16:13;14.57;;;7.93;;
20859;SDS011;10590;48.154;11.514;2023-05-14T09:21:35;14.40;;;9.07;;
20859;SDS011;10590;48.154;11.514;2023-05-14T09:27:00;11.00;;;7.73;;
20859;SDS011;10590;48.154;11.514;2023-05-14T09:32:23;47.43;;;22.83;;
20859;SDS011;10590;48.154;11.514;2023-05-14T09:37:45;11.53;;;7.50;;
20859;SDS011;10590;48.154;11.514;2023-05-14T09:43:10;15.33;;;8.10;;
20859;SDS011;10590;48.154;11.514;2023-05-14T09:48:33;10.57;;;7.93;;
20859;SDS011;10590;48.154;11.514;2023-05-14T09:53:55;14.27;;;7.77;;
20859;SDS011;10590;48.154;11.514;2023-05-14T09:59:19;15.13;;;7.20;;
20859;SDS011;10590;48.154;11.514;2023-05-14T10:04:41;11.43;;;6.33;;
20859;SDS011;10590;48.154;11.514;2023-05-14T10:10:06;12.50;;;6.93;;
20859;SDS011;10590;48.154;11.514;2023-05-14T10:15:36;10.50;;;5.97;;
20859;SDS011;10590;48.154;11.514;2023-05-14T10:21:03;10.20;;;6.70;;
20859;SDS011;10590;48.154;11.514;2023-05-14T10:26:26;14.73;;;8.83;;
20859;SDS011;10590;48.154;11.514;2023-05-14T10:31:50;14.17;;;8.33;;
20859;SDS011;10590;48.154;11.514;2023-05-14T10:37:15;11.77;;;8.30;;
20859;SDS011;10590;48.154;11.514;2023-05-14T10:42:38;13.20;;;7.80;;
20859;SDS011;10590;48.154;11.514;2023-05-14T10:48:04;11.87;;;8.17;;
20859;SDS011;10590;48.154;11.514;2023-05-14T10:53:30;9.77;;;7.17;;
20859;SDS011;10590;48.154;11.514;2023-05-14T10:58:56;12.93;;;6.93;;
20859;SDS011;10590;48.154;11.514;2023-05-14T11:04:22;9.10;;;6.23;;
20859;SDS011;10590;48.154;11.514;2023-05-14T11:09:45;8.30;;;6.10;;
20859;SDS011;10590;48.154;11.514;2023-05-14T11:15:08;8.37;;;6.03;;
20859;SDS011;10590;48.154;11.514;2023-05-14T11:20:32;9.43;;;6.37;;
20859;SDS011;10590;48.154;11.514;2023-05-14T11:25:56;7.93;;;6.27;;
20859;SDS011;10590;48.154;11.514;2023-05-14T11:31:18;11.57;;;6.60;;
20859;SDS011;10590;48.154;11.514;2023-05-14T11:36:41;8.10;;;5.33;;
20859;SDS011;10590;48.154;11.514;2023-05-14T11:42:03;7.37;;;6.00;;
20859;SDS011;10590;48.154;11.514;2023-05-14T11:47:31;9.50;;;5.27;;
20859;SDS011;10590;48.154;11.514;2023-05-14T11:52:56;7.27;;;6.10;;
20859;SDS011;10590;48.154;11.514;2023-05-14T11:58:18;8.73;;;5.13;;
20859;SDS011;10590;48.154;11.514;2023-05-14T12:03:40;6.93;;;5.13;;
20859;SDS011;10590;48.154;11.514;2023-05-14T12:09:04;11.17;;;5.30;;
20859;SDS011;10590;48.154;11.514;2023-05-14T12:14:27;6.60;;;5.20;;
20859;SDS011;10590;48.154;11.514;2023-05-14T12:19:49;8.60;;;5.53;;
20859;SDS011;10590;48.154;11.514;2023-05-14T12:25:13;7.40;;;4.73;;
20859;SDS011;10590;48.154;11.514;2023-05-14T12:30:36;9.00;;;5.47;;
20859;SDS011;10590;48.154;11.514;2023-05-14T12:35:58;5.93;;;4.40;;
20859;SDS011;10590;48.154;11.514;2023-05-14T12:41:22;5.50;;;4.40;;
20859;SDS011;10590;48.154;11.514;2023-05-14T12:46:45;5.90;;;4.00;;
20859;SDS011;10590;48.154;11.514;2023-05-14T12:52:07;6.63;;;4.97;;
20859;SDS011;10590;48.154;11.514;2023-05-14T12:57:30;10.37;;;3.93;;
20859;SDS011;10590;48.154;11.514;2023-05-14T13:02:54;3.60;;;3.30;;
20859;SDS011;10590;48.154;11.514;2023-05-14T13:08:16;7.23;;;4.57;;
20859;SDS011;10590;48.154;11.514;2023-05-14T13:13:42;5.67;;;4.73;;
20859;SDS011;10590;48.154;11.514;2023-05-14T13:19:04;5.10;;;3.57;;
20859;SDS011;10590;48.154;11.514;2023-05-14T13:24:25;7.90;;;4.70;;
20859;SDS011;10590;48.154;11.514;2023-05-14T13:29:49;4.83;;;3.90;;
20859;SDS011;10590;48.154;11.514;2023-05-14T13:35:11;4.73;;;3.87;;
20859;SDS011;10590;48.154;11.514;2023-05-14T13:40:35;3.33;;;2.83;;
20859;SDS011;10590;48.154;11.514;2023-05-14T13:45:58;3.43;;;3.13;;
20859;SDS011;10590;48.154;11.514;2023-05-14T13:51:21;4.17;;;3.23;;
20859;SDS011;10590;48.154;11.514;2023-05-14T13:56:43;3.40;;;2.97;;
20859;SDS011;10590;48.154;11.514;2023-05-14T14:02:07;5.30;;;3.77;;
20859;SDS011;10590;48.154;11.514;2023-05-14T14:07:29;4.87;;;3.70;;
20859;SDS011;10590;48.154;11.514;2023-05-14T14:12:51;2.83;;;2.50;;
20859;SDS011;10590;48.154;11.514;2023-05-14T14:18:14;3.00;;;2.40;;
20859;SDS011;10590;48.154;11.514;2023-05-14T14:23:36;7.93;;;2.20;;
20859;SDS011;10590;48.154;11.514;2023-05-14T14:28:58;2.43;;;2.10;;
20859;SDS011;10590;48.154;11.514;2023-05-14T14:34:21;2.17;;;1.97;;
20859;SDS011;10590;48.154;11.514;2023-05-14T14:39:43;2.97;;;2.30;;
20859;SDS011;10590;48.154;11.514;2023-05-14T14:45:05;2.83;;;2.33;;
20859;SDS011;10590;48.154;11.514;2023-05-14T14:50:29;3.40;;;2.13;;
20859;SDS011;10590;48.154;11.514;2023-05-14T14:55:58;2.47;;;2.13;;
20859;SDS011;10590;48.154;11.514;2023-05-14T15:07:17;1.87;;;1.50;;
20859;SDS011;10590;48.154;11.514;2023-05-14T15:12:41;2.10;;;1.90;;
20859;SDS011;10590;48.154;11.514;2023-05-14T15:18:03;2.27;;;2.00;;
20859;SDS011;10590;48.154;11.514;2023-05-14T15:23:27;8.77;;;2.00;;
20859;SDS011;10590;48.154;11.514;2023-05-14T15:28:50;1.63;;;1.47;;
20859;SDS011;10590;48.154;11.514;2023-05-14T15:34:12;1.97;;;1.77;;
20859;SDS011;10590;48.154;11.514;2023-05-14T15:39:35;3.57;;;1.77;;
20859;SDS011;10590;48.154;11.514;2023-05-14T15:44:57;2.37;;;1.83;;
20859;SDS011;10590;48.154;11.514;2023-05-14T15:50:19;1.80;;;1.70;;
20859;SDS011;10590;48.154;11.514;2023-05-14T15:55:43;2.10;;;1.90;;
20859;SDS011;10590;48.154;11.514;2023-05-14T16:01:05;4.80;;;1.97;;
20859;SDS011;10590;48.154;11.514;2023-05-14T16:06:27;2.30;;;1.70;;
20859;SDS011;10590;48.154;11.514;2023-05-14T16:11:50;3.30;;;2.57;;
20859;SDS011;10590;48.154;11.514;2023-05-14T16:17:12;3.97;;;2.73;;
20859;SDS011;10590;48.154;11.514;2023-05-14T16:22:34;3.07;;;2.50;;
20859;SDS011;10590;48.154;11.514;2023-05-14T16:27:57;3.87;;;2.80;;
20859;SDS011;10590;48.154;11.514;2023-05-14T16:33:20;4.00;;;2.93;;
20859;SDS011;10590;48.154;11.514;2023-05-14T16:38:42;5.50;;;2.70;;
20859;SDS011;10590;48.154;11.514;2023-05-14T16:44:05;8.40;;;2.83;;
20859;SDS011;10590;48.154;11.514;2023-05-14T16:49:27;4.93;;;2.17;;
20859;SDS011;10590;48.154;11.514;2023-05-14T16:54:49;6.77;;;2.27;;
20859;SDS011;10590;48.154;11.514;2023-05-14T17:00:16;2.37;;;2.13;;
20859;SDS011;10590;48.154;11.514;2023-05-14T17:05:38;3.53;;;2.27;;
20859;SDS011;10590;48.154;11.514;2023-05-14T17:11:00;2.50;;;2.27;;
20859;SDS011;10590;48.154;11.514;2023-05-14T17:16:26;3.13;;;2.83;;
20859;SDS011;10590;48.154;11.514;2023-05-14T17:21:48;2.20;;;2.10;;
20859;SDS011;10590;48.154;11.514;2023-05-14T17:27:10;3.17;;;2.40;;
20859;SDS011;10590;48.154;11.514;2023-05-14T17:32:33;3.67;;;2.40;;
20859;SDS011;10590;48.154;11.514;2023-05-14T17:37:55;3.20;;;2.23;;
20859;SDS011;10590;48.154;11.514;2023-05-14T17:43:17;1.80;;;1.70;;
20859;SDS011;10590;48.154;11.514;2023-05-14T17:48:40;1.90;;;1.80;;
20859;SDS011;10590;48.154;11.514;2023-05-14T17:54:02;2.73;;;2.53;;
20859;SDS011;10590;48.154;11.514;2023-05-14T17:59:24;2.37;;;1.80;;
20859;SDS011;10590;48.154;11.514;2023-05-14T18:04:48;3.40;;;1.40;;
20859;SDS011;10590;48.154;11.514;2023-05-14T18:10:10;1.90;;;1.80;;
20859;SDS011;10590;48.154;11.514;2023-05-14T18:15:31;1.70;;;1.60;;
20859;SDS011;10590;48.154;11.514;2023-05-14T18:20:55;2.00;;;1.90;;
20859;SDS011;10590;48.154;11.514;2023-05-14T18:26:17;2.60;;;1.57;;
20859;SDS011;10590;48.154;11.514;2023-05-14T18:31:39;1.60;;;1.50;;
20859;SDS011;10590;48.154;11.514;2023-05-14T18:37:02;2.33;;;1.93;;
20859;SDS011;10590;48.154;11.514;2023-05-14T18:42:24;2.43;;;1.83;;
20859;SDS011;10590;48.154;11.514;2023-05-14T18:47:46;3.87;;;1.73;;
20859;SDS011;10590;48.154;11.514;2023-05-14T18:53:09;1.80;;;1.70;;
20859;SDS011;10590;48.154;11.514;2023-05-14T18:58:31;1.83;;;1.73;;
20859;SDS011;10590;48.154;11.514;2023-05-14T19:03:53;2.23;;;1.67;;
20859;SDS011;10590;48.154;11.514;2023-05-14T19:09:17;2.03;;;1.83;;
20859;SDS011;10590;48.154;11.514;2023-05-14T19:14:40;3.10;;;2.40;;
20859;SDS011;10590;48.154;11.514;2023-05-14T19:20:02;6.57;;;2.97;;
20859;SDS011;10590;48.154;11.514;2023-05-14T19:25:27;3.03;;;2.80;;
20859;SDS011;10590;48.154;11.514;2023-05-14T19:30:49;2.57;;;2.37;;
20859;SDS011;10590;48.154;11.514;2023-05-14T19:36:12;7.33;;;4.73;;
20859;SDS011;10590;48.154;11.514;2023-05-14T19:41:35;3.17;;;2.87;;
20859;SDS011;10590;48.154;11.514;2023-05-14T19:46:58;2.57;;;2.37;;
20859;SDS011;10590;48.154;11.514;2023-05-14T19:52:20;2.73;;;2.43;;
20859;SDS011;10590;48.154;11.514;2023-05-14T19:57:44;2.87;;;2.50;;
20859;SDS011;10590;48.154;11.514;2023-05-14T20:03:09;5.50;;;3.60;;
20859;SDS011;10590;48.154;11.514;2023-05-14T20:08:35;6.83;;;4.00;;
20859;SDS011;10590;48.154;11.514;2023-05-14T20:13:58;7.17;;;3.80;;
20859;SDS011;10590;48.154;11.514;2023-05-14T20:19:20;3.90;;;3.50;;
20859;SDS011;10590;48.154;11.514;2023-05-14T20:24:42;26.33;;;13.80;;
20859;SDS011;10590;48.154;11.514;2023-05-14T20:30:07;5.47;;;3.77;;
20859;SDS011;10590;48.154;11.514;2023-05-14T20:35:29;6.40;;;3.33;;
20859;SDS011;10590;48.154;11.514;2023-05-14T20:40:51;3.77;;;3.47;;
20859;SDS011;10590;48.154;11.514;2023-05-14T20:46:14;5.17;;;3.77;;
20859;SDS011;10590;48.154;11.514;2023-05-14T20:51:36;4.73;;;3.77;;
20859;SDS011;10590;48.154;11.514;2023-05-14T20:56:58;4.10;;;3.70;;
20859;SDS011;10590;48.154;11.514;2023-05-14T21:02:21;3.90;;;3.50;;
20859;SDS011;10590;48.154;11.514;2023-05-14T21:07:46;9.57;;;4.40;;
20859;SDS011;10590;48.154;11.514;2023-05-14T21:13:08;6.23;;;3.63;;
20859;SDS011;10590;48.154;11.514;2023-05-14T21:18:31;3.83;;;3.47;;
20859;SDS011;10590;48.154;11.514;2023-05-14T21:23:53;4.63;;;3.80;;
20859;SDS011;10590;48.154;11.514;2023-05-14T21:29:15;5.30;;;3.87;;
20859;SDS011;10590;48.154;11.514;2023-05-14T21:34:38;4.17;;;3.70;;
20859;SDS011;10590;48.154;11.514;2023-05-14T21:40:03;5.90;;;4.17;;
20859;SDS011;10590;48.154;11.514;2023-05-14T21:45:26;6.17;;;4.60;;
20859;SDS011;10590;48.154;11.514;2023-05-14T21:50:50;4.50;;;4.00;;
20859;SDS011;10590;48.154;11.514;2023-05-14T21:56:12;5.53;;;4.40;;
20859;SDS011;10590;48.154;11.514;2023-05-14T22:01:34;4.60;;;3.40;;
20859;SDS011;10590;48.154;11.514;2023-05-14T22:06:57;4.73;;;3.90;;
20859;SDS011;10590;48.154;11.514;2023-05-14T22:12:20;4.50;;;3.33;;
20859;SDS011;10590;48.154;11.514;2023-05-14T22:17:41;6.17;;;4.30;;
20859;SDS011;10590;48.154;11.514;2023-05-14T22:23:05;3.40;;;2.90;;
20859;SDS011;10590;48.154;11.514;2023-05-14T22:28:27;6.53;;;4.77;;
20859;SDS011;10590;48.154;11.514;2023-05-14T22:33:50;6.73;;;4.33;;
20859;SDS011;10590;48.154;11.514;2023-05-14T22:39:13;7.33;;;4.50;;
20859;SDS011;10590;48.154;11.514;2023-05-14T22:44:35;5.50;;;4.33;;
20859;SDS011;10590;48.154;11.514;2023-05-14T22:49:57;8.90;;;5.60;;
20859;SDS011;10590;48.154;11.514;2023-05-14T22:55:20;5.63;;;4.87;;
20859;SDS011;10590;48.154;11.514;2023-05-14T23:00:42;7.53;;;4.90;;
20859;SDS011;10590;48.154;11.514;2023-05-14T23:06:04;8.63;;;4.67;;
20859;SDS011;10590;48.154;11.514;2023-05-14T23:11:28;6.43;;;4.47;;
20859;SDS011;10590;48.154;11.514;2023-05-14T23:16:50;4.97;;;4.30;;
20859;SDS011;10590;48.154;11.514;2023-05-14T23:22:12;5.27;;;4.33;;
20859;SDS011;10590;48.154;11.514;2023-05-14T23:27:35;6.30;;;3.80;;
20859;SDS011;10590;48.154;11.514;2023-05-14T23:32:57;4.07;;;3.67;;
20859;SDS011;10590;48.154;11.514;2023-05-14T23:38:19;5.57;;;4.03;;
20859;SDS011;10590;48.154;11.514;2023-05-14T23:43:43;5.87;;;4.20;;
20859;SDS011;10590;48.154;11.514;2023-05-14T23:49:05;4.60;;;3.87;;
20859;SDS011;10590;48.154;11.514;2023-05-14T23:54:28;4.17;;;3.70;;
20859;SDS011;10590;48.154;11.514;2023-05-14T23:59:51;4.93;;;3.77;;
